sensor_id;sensor_type;location;lat;lon;timestamp;P1;durP1;ratioP1;P2;durP2;ratioP2
18689;SDS011;9782;52.930;15.562;2023-01-29T00:01:17;9.07;;;4.70;;
18689;SDS011;9782;52.930;15.562;2023-01-29T00:03:45;8.07;;;4.87;;
18689;SDS011;9782;52.930;15.562;2023-01-29T00:06:15;6.40;;;4.20;;
18689;SDS011;9782;52.930;15.562;2023-01-29T00:08:42;9.30;;;4.50;;
18689;SDS011;9782;52.930;15.562;2023-01-29T00:11:09;7.30;;;4.00;;
18689;SDS011;9782;52.930;15.562;2023-01-29T00:13:36;6.60;;;3.43;;
18689;SDS011;9782;52.930;15.562;2023-01-29T00:16:03;5.87;;;4.00;;
18689;SDS011;9782;52.930;15.562;2023-01-29T00:18:30;7.40;;;4.00;;
18689;SDS011;9782;52.930;15.562;2023-01-29T00:20:58;6.57;;;3.73;;
18689;SDS011;9782;52.930;15.562;2023-01-29T00:23:25;6.57;;;3.77;;
18689;SDS011;9782;52.930;15.562;2023-01-29T00:25:52;6.20;;;3.40;;
18689;SDS011;9782;52.930;15.562;2023-01-29T00:28:19;6.00;;;3.70;;
18689;SDS011;9782;52.930;15.562;2023-01-29T00:30:46;6.83;;;3.70;;
18689;SDS011;9782;52.930;15.562;2023-01-29T00:33:13;7.37;;;3.70;;
18689;SDS011;9782;52.930;15.562;2023-01-29T00:35:40;6.63;;;3.53;;
18689;SDS011;9782;52.930;15.562;2023-01-29T00:38:09;7.83;;;3.47;;
18689;SDS011;9782;52.930;15.562;2023-01-29T00:40:36;7.03;;;3.70;;
18689;SDS011;9782;52.930;15.562;2023-01-29T00:43:21;9.00;;;3.63;;
18689;SDS011;9782;52.930;15.562;2023-01-29T00:46:05;6.43;;;3.73;;
18689;SDS011;9782;52.930;15.562;2023-01-29T00:48:32;6.07;;;3.30;;
18689;SDS011;9782;52.930;15.562;2023-01-29T00:51:00;5.30;;;3.40;;
18689;SDS011;9782;52.930;15.562;2023-01-29T00:53:28;6.63;;;3.70;;
18689;SDS011;9782;52.930;15.562;2023-01-29T00:55:55;4.07;;;2.90;;
18689;SDS011;9782;52.930;15.562;2023-01-29T00:58:22;5.97;;;3.87;;
18689;SDS011;9782;52.930;15.562;2023-01-29T01:00:58;6.27;;;3.60;;
18689;SDS011;9782;52.930;15.562;2023-01-29T01:03:26;7.13;;;3.80;;
18689;SDS011;9782;52.930;15.562;2023-01-29T01:06:02;8.27;;;3.73;;
18689;SDS011;9782;52.930;15.562;2023-01-29T01:08:31;5.43;;;3.50;;
18689;SDS011;9782;52.930;15.562;2023-01-29T01:11:30;5.93;;;3.70;;
18689;SDS011;9782;52.930;15.562;2023-01-29T01:13:59;6.37;;;4.07;;
18689;SDS011;9782;52.930;15.562;2023-01-29T01:16:26;8.37;;;4.00;;
18689;SDS011;9782;52.930;15.562;2023-01-29T01:18:53;5.80;;;3.80;;
18689;SDS011;9782;52.930;15.562;2023-01-29T01:21:20;8.70;;;4.20;;
18689;SDS011;9782;52.930;15.562;2023-01-29T01:23:48;7.67;;;4.03;;
18689;SDS011;9782;52.930;15.562;2023-01-29T01:26:16;6.97;;;3.50;;
18689;SDS011;9782;52.930;15.562;2023-01-29T01:28:43;10.63;;;3.63;;
18689;SDS011;9782;52.930;15.562;2023-01-29T01:31:10;6.80;;;4.13;;
18689;SDS011;9782;52.930;15.562;2023-01-29T01:33:39;7.70;;;3.97;;
18689;SDS011;9782;52.930;15.562;2023-01-29T01:36:06;6.50;;;4.20;;
18689;SDS011;9782;52.930;15.562;2023-01-29T01:38:35;6.17;;;3.80;;
18689;SDS011;9782;52.930;15.562;2023-01-29T01:41:10;6.83;;;3.87;;
18689;SDS011;9782;52.930;15.562;2023-01-29T01:43:47;7.73;;;4.20;;
18689;SDS011;9782;52.930;15.562;2023-01-29T01:46:16;5.70;;;3.70;;
18689;SDS011;9782;52.930;15.562;2023-01-29T01:48:43;7.43;;;4.53;;
18689;SDS011;9782;52.930;15.562;2023-01-29T01:51:12;6.37;;;4.23;;
18689;SDS011;9782;52.930;15.562;2023-01-29T01:53:40;8.63;;;4.60;;
18689;SDS011;9782;52.930;15.562;2023-01-29T01:56:16;9.47;;;4.80;;
18689;SDS011;9782;52.930;15.562;2023-01-29T01:58:47;9.70;;;5.40;;
18689;SDS011;9782;52.930;15.562;2023-01-29T02:01:18;8.90;;;4.80;;
18689;SDS011;9782;52.930;15.562;2023-01-29T02:03:53;11.53;;;5.40;;
18689;SDS011;9782;52.930;15.562;2023-01-29T02:06:42;8.90;;;5.00;;
18689;SDS011;9782;52.930;15.562;2023-01-29T02:09:29;8.30;;;4.63;;
18689;SDS011;9782;52.930;15.562;2023-01-29T02:12:02;8.87;;;5.30;;
18689;SDS011;9782;52.930;15.562;2023-01-29T02:14:30;8.83;;;5.43;;
18689;SDS011;9782;52.930;15.562;2023-01-29T02:17:03;7.93;;;5.07;;
18689;SDS011;9782;52.930;15.562;2023-01-29T02:19:38;10.47;;;5.73;;
18689;SDS011;9782;52.930;15.562;2023-01-29T02:22:22;7.73;;;5.20;;
18689;SDS011;9782;52.930;15.562;2023-01-29T02:28:14;10.83;;;4.23;;
18689;SDS011;9782;52.930;15.562;2023-01-29T02:30:49;9.63;;;4.80;;
18689;SDS011;9782;52.930;15.562;2023-01-29T02:33:25;7.97;;;5.73;;
18689;SDS011;9782;52.930;15.562;2023-01-29T02:36:03;11.33;;;5.73;;
18689;SDS011;9782;52.930;15.562;2023-01-29T02:38:40;10.70;;;5.40;;
18689;SDS011;9782;52.930;15.562;2023-01-29T02:41:14;9.03;;;5.60;;
18689;SDS011;9782;52.930;15.562;2023-01-29T02:43:51;8.47;;;5.43;;
18689;SDS011;9782;52.930;15.562;2023-01-29T02:46:26;10.27;;;5.30;;
18689;SDS011;9782;52.930;15.562;2023-01-29T02:48:58;11.80;;;5.83;;
18689;SDS011;9782;52.930;15.562;2023-01-29T02:51:33;11.67;;;5.80;;
18689;SDS011;9782;52.930;15.562;2023-01-29T02:54:05;8.07;;;5.67;;
18689;SDS011;9782;52.930;15.562;2023-01-29T02:56:39;10.67;;;6.20;;
18689;SDS011;9782;52.930;15.562;2023-01-29T02:59:15;12.77;;;6.53;;
18689;SDS011;9782;52.930;15.562;2023-01-29T03:01:46;11.47;;;6.33;;
18689;SDS011;9782;52.930;15.562;2023-01-29T03:04:19;16.70;;;6.80;;
18689;SDS011;9782;52.930;15.562;2023-01-29T03:06:52;11.97;;;6.10;;
18689;SDS011;9782;52.930;15.562;2023-01-29T03:09:24;10.77;;;6.17;;
18689;SDS011;9782;52.930;15.562;2023-01-29T03:11:57;12.33;;;7.17;;
18689;SDS011;9782;52.930;15.562;2023-01-29T03:14:44;10.57;;;6.53;;
18689;SDS011;9782;52.930;15.562;2023-01-29T03:17:35;11.70;;;5.87;;
18689;SDS011;9782;52.930;15.562;2023-01-29T03:20:05;10.57;;;6.73;;
18689;SDS011;9782;52.930;15.562;2023-01-29T03:22:37;11.57;;;6.57;;
18689;SDS011;9782;52.930;15.562;2023-01-29T03:25:07;10.63;;;6.40;;
18689;SDS011;9782;52.930;15.562;2023-01-29T03:27:54;12.23;;;6.80;;
18689;SDS011;9782;52.930;15.562;2023-01-29T03:30:43;11.40;;;6.50;;
18689;SDS011;9782;52.930;15.562;2023-01-29T03:33:31;10.00;;;6.40;;
18689;SDS011;9782;52.930;15.562;2023-01-29T03:36:07;12.30;;;7.33;;
18689;SDS011;9782;52.930;15.562;2023-01-29T03:38:40;11.60;;;6.90;;
18689;SDS011;9782;52.930;15.562;2023-01-29T03:41:07;12.30;;;6.97;;
18689;SDS011;9782;52.930;15.562;2023-01-29T03:43:42;15.87;;;7.27;;
18689;SDS011;9782;52.930;15.562;2023-01-29T03:46:19;20.13;;;8.67;;
18689;SDS011;9782;52.930;15.562;2023-01-29T03:48:54;14.43;;;7.70;;
18689;SDS011;9782;52.930;15.562;2023-01-29T03:51:27;18.93;;;7.97;;
18689;SDS011;9782;52.930;15.562;2023-01-29T03:54:01;12.97;;;7.40;;
18689;SDS011;9782;52.930;15.562;2023-01-29T03:56:38;15.37;;;8.37;;
18689;SDS011;9782;52.930;15.562;2023-01-29T03:59:15;14.53;;;8.80;;
18689;SDS011;9782;52.930;15.562;2023-01-29T04:01:50;13.80;;;8.00;;
18689;SDS011;9782;52.930;15.562;2023-01-29T04:04:21;17.97;;;8.60;;
18689;SDS011;9782;52.930;15.562;2023-01-29T04:06:50;17.53;;;8.47;;
18689;SDS011;9782;52.930;15.562;2023-01-29T04:09:22;13.50;;;8.10;;
18689;SDS011;9782;52.930;15.562;2023-01-29T04:11:56;16.37;;;8.17;;
18689;SDS011;9782;52.930;15.562;2023-01-29T04:14:27;13.53;;;7.80;;
18689;SDS011;9782;52.930;15.562;2023-01-29T04:16:59;15.07;;;8.77;;
18689;SDS011;9782;52.930;15.562;2023-01-29T04:19:28;14.47;;;8.77;;
18689;SDS011;9782;52.930;15.562;2023-01-29T04:21:59;20.53;;;10.17;;
18689;SDS011;9782;52.930;15.562;2023-01-29T04:24:30;14.60;;;8.00;;
18689;SDS011;9782;52.930;15.562;2023-01-29T04:26:59;17.93;;;9.73;;
18689;SDS011;9782;52.930;15.562;2023-01-29T04:29:36;17.23;;;9.77;;
18689;SDS011;9782;52.930;15.562;2023-01-29T04:32:16;15.20;;;9.60;;
18689;SDS011;9782;52.930;15.562;2023-01-29T04:34:55;15.30;;;8.40;;
18689;SDS011;9782;52.930;15.562;2023-01-29T04:37:32;17.13;;;9.33;;
18689;SDS011;9782;52.930;15.562;2023-01-29T04:40:08;16.53;;;9.93;;
18689;SDS011;9782;52.930;15.562;2023-01-29T04:42:46;14.13;;;8.20;;
18689;SDS011;9782;52.930;15.562;2023-01-29T04:45:17;14.93;;;9.33;;
18689;SDS011;9782;52.930;15.562;2023-01-29T04:47:56;21.70;;;10.80;;
18689;SDS011;9782;52.930;15.562;2023-01-29T04:50:33;15.70;;;9.43;;
18689;SDS011;9782;52.930;15.562;2023-01-29T04:53:05;14.33;;;9.07;;
18689;SDS011;9782;52.930;15.562;2023-01-29T04:55:37;19.73;;;9.80;;
18689;SDS011;9782;52.930;15.562;2023-01-29T04:58:10;21.70;;;10.37;;
18689;SDS011;9782;52.930;15.562;2023-01-29T05:00:41;17.97;;;9.90;;
18689;SDS011;9782;52.930;15.562;2023-01-29T05:03:12;21.23;;;9.80;;
18689;SDS011;9782;52.930;15.562;2023-01-29T05:05:42;18.40;;;9.87;;
18689;SDS011;9782;52.930;15.562;2023-01-29T05:08:12;18.27;;;10.33;;
18689;SDS011;9782;52.930;15.562;2023-01-29T05:10:42;17.27;;;10.67;;
18689;SDS011;9782;52.930;15.562;2023-01-29T05:13:12;20.00;;;10.37;;
18689;SDS011;9782;52.930;15.562;2023-01-29T05:15:41;16.33;;;9.77;;
18689;SDS011;9782;52.930;15.562;2023-01-29T05:18:14;22.27;;;9.80;;
18689;SDS011;9782;52.930;15.562;2023-01-29T05:20:41;19.00;;;9.70;;
18689;SDS011;9782;52.930;15.562;2023-01-29T05:23:09;19.50;;;10.43;;
18689;SDS011;9782;52.930;15.562;2023-01-29T05:25:41;18.80;;;10.30;;
18689;SDS011;9782;52.930;15.562;2023-01-29T05:28:09;21.10;;;10.40;;
18689;SDS011;9782;52.930;15.562;2023-01-29T05:30:40;19.70;;;10.20;;
18689;SDS011;9782;52.930;15.562;2023-01-29T05:33:11;18.10;;;10.10;;
18689;SDS011;9782;52.930;15.562;2023-01-29T05:35:40;21.37;;;10.67;;
18689;SDS011;9782;52.930;15.562;2023-01-29T05:38:08;17.07;;;9.77;;
18689;SDS011;9782;52.930;15.562;2023-01-29T05:40:35;19.67;;;9.97;;
18689;SDS011;9782;52.930;15.562;2023-01-29T05:43:03;17.03;;;9.27;;
18689;SDS011;9782;52.930;15.562;2023-01-29T05:45:31;18.57;;;10.70;;
18689;SDS011;9782;52.930;15.562;2023-01-29T05:47:58;17.47;;;9.87;;
18689;SDS011;9782;52.930;15.562;2023-01-29T05:50:25;20.50;;;11.10;;
18689;SDS011;9782;52.930;15.562;2023-01-29T05:52:57;19.60;;;10.67;;
18689;SDS011;9782;52.930;15.562;2023-01-29T05:55:25;18.60;;;9.93;;
18689;SDS011;9782;52.930;15.562;2023-01-29T05:57:53;22.17;;;11.17;;
18689;SDS011;9782;52.930;15.562;2023-01-29T06:00:20;21.40;;;11.43;;
18689;SDS011;9782;52.930;15.562;2023-01-29T06:02:48;18.50;;;10.87;;
18689;SDS011;9782;52.930;15.562;2023-01-29T06:05:15;22.27;;;11.83;;
18689;SDS011;9782;52.930;15.562;2023-01-29T06:07:42;20.40;;;11.90;;
18689;SDS011;9782;52.930;15.562;2023-01-29T06:10:12;25.40;;;13.17;;
18689;SDS011;9782;52.930;15.562;2023-01-29T06:12:41;22.30;;;11.70;;
18689;SDS011;9782;52.930;15.562;2023-01-29T06:15:09;23.43;;;12.00;;
18689;SDS011;9782;52.930;15.562;2023-01-29T06:17:36;25.60;;;13.27;;
18689;SDS011;9782;52.930;15.562;2023-01-29T06:20:03;25.67;;;12.20;;
18689;SDS011;9782;52.930;15.562;2023-01-29T06:22:31;21.93;;;12.10;;
18689;SDS011;9782;52.930;15.562;2023-01-29T06:24:58;21.17;;;11.53;;
18689;SDS011;9782;52.930;15.562;2023-01-29T06:27:27;25.77;;;12.23;;
18689;SDS011;9782;52.930;15.562;2023-01-29T06:29:54;22.73;;;11.67;;
18689;SDS011;9782;52.930;15.562;2023-01-29T06:32:21;27.53;;;12.67;;
18689;SDS011;9782;52.930;15.562;2023-01-29T06:34:48;27.47;;;12.63;;
18689;SDS011;9782;52.930;15.562;2023-01-29T06:37:15;23.90;;;12.97;;
18689;SDS011;9782;52.930;15.562;2023-01-29T06:39:42;24.17;;;13.17;;
18689;SDS011;9782;52.930;15.562;2023-01-29T06:42:09;24.67;;;12.40;;
18689;SDS011;9782;52.930;15.562;2023-01-29T06:44:37;24.63;;;13.27;;
18689;SDS011;9782;52.930;15.562;2023-01-29T06:47:04;23.27;;;12.33;;
18689;SDS011;9782;52.930;15.562;2023-01-29T06:49:31;28.30;;;13.73;;
18689;SDS011;9782;52.930;15.562;2023-01-29T06:51:58;26.60;;;13.53;;
18689;SDS011;9782;52.930;15.562;2023-01-29T06:54:25;26.63;;;12.77;;
18689;SDS011;9782;52.930;15.562;2023-01-29T06:56:52;27.63;;;14.67;;
18689;SDS011;9782;52.930;15.562;2023-01-29T06:59:20;24.87;;;13.27;;
18689;SDS011;9782;52.930;15.562;2023-01-29T07:01:48;23.67;;;11.97;;
18689;SDS011;9782;52.930;15.562;2023-01-29T07:04:15;23.47;;;13.00;;
18689;SDS011;9782;52.930;15.562;2023-01-29T07:06:42;23.57;;;13.20;;
18689;SDS011;9782;52.930;15.562;2023-01-29T07:09:10;26.87;;;13.90;;
18689;SDS011;9782;52.930;15.562;2023-01-29T07:11:38;22.97;;;12.83;;
18689;SDS011;9782;52.930;15.562;2023-01-29T07:14:05;22.43;;;12.47;;
18689;SDS011;9782;52.930;15.562;2023-01-29T07:16:33;24.50;;;13.07;;
18689;SDS011;9782;52.930;15.562;2023-01-29T07:19:01;20.67;;;11.53;;
18689;SDS011;9782;52.930;15.562;2023-01-29T07:21:28;22.50;;;12.30;;
18689;SDS011;9782;52.930;15.562;2023-01-29T07:23:55;26.83;;;13.27;;
18689;SDS011;9782;52.930;15.562;2023-01-29T07:26:22;24.10;;;12.40;;
18689;SDS011;9782;52.930;15.562;2023-01-29T07:28:49;26.23;;;13.23;;
18689;SDS011;9782;52.930;15.562;2023-01-29T07:31:16;24.37;;;12.73;;
18689;SDS011;9782;52.930;15.562;2023-01-29T07:33:43;27.70;;;13.27;;
18689;SDS011;9782;52.930;15.562;2023-01-29T07:36:12;26.57;;;13.20;;
18689;SDS011;9782;52.930;15.562;2023-01-29T07:38:39;26.33;;;13.47;;
18689;SDS011;9782;52.930;15.562;2023-01-29T07:41:07;29.23;;;13.83;;
18689;SDS011;9782;52.930;15.562;2023-01-29T07:43:35;31.93;;;14.50;;
18689;SDS011;9782;52.930;15.562;2023-01-29T07:46:03;29.93;;;14.10;;
18689;SDS011;9782;52.930;15.562;2023-01-29T07:48:30;31.20;;;14.73;;
18689;SDS011;9782;52.930;15.562;2023-01-29T07:50:57;29.57;;;14.17;;
18689;SDS011;9782;52.930;15.562;2023-01-29T07:53:26;33.23;;;15.00;;
18689;SDS011;9782;52.930;15.562;2023-01-29T07:55:54;29.77;;;14.40;;
18689;SDS011;9782;52.930;15.562;2023-01-29T07:58:21;32.43;;;13.67;;
18689;SDS011;9782;52.930;15.562;2023-01-29T08:00:48;31.23;;;13.77;;
18689;SDS011;9782;52.930;15.562;2023-01-29T08:03:16;32.93;;;14.37;;
18689;SDS011;9782;52.930;15.562;2023-01-29T08:05:44;31.17;;;13.87;;
18689;SDS011;9782;52.930;15.562;2023-01-29T08:08:12;31.93;;;14.50;;
18689;SDS011;9782;52.930;15.562;2023-01-29T08:10:41;39.73;;;16.83;;
18689;SDS011;9782;52.930;15.562;2023-01-29T08:13:08;35.83;;;14.77;;
18689;SDS011;9782;52.930;15.562;2023-01-29T08:15:35;37.17;;;15.07;;
18689;SDS011;9782;52.930;15.562;2023-01-29T08:18:02;43.73;;;16.77;;
18689;SDS011;9782;52.930;15.562;2023-01-29T08:20:29;40.27;;;15.37;;
18689;SDS011;9782;52.930;15.562;2023-01-29T08:22:59;35.50;;;14.70;;
18689;SDS011;9782;52.930;15.562;2023-01-29T08:25:28;35.30;;;15.60;;
18689;SDS011;9782;52.930;15.562;2023-01-29T08:27:57;31.10;;;15.33;;
18689;SDS011;9782;52.930;15.562;2023-01-29T08:30:25;35.00;;;15.10;;
18689;SDS011;9782;52.930;15.562;2023-01-29T08:32:52;37.93;;;14.53;;
18689;SDS011;9782;52.930;15.562;2023-01-29T08:35:19;34.57;;;15.33;;
18689;SDS011;9782;52.930;15.562;2023-01-29T08:37:51;47.20;;;15.37;;
18689;SDS011;9782;52.930;15.562;2023-01-29T08:40:20;37.53;;;14.90;;
18689;SDS011;9782;52.930;15.562;2023-01-29T08:42:48;35.23;;;14.70;;
18689;SDS011;9782;52.930;15.562;2023-01-29T08:45:16;46.03;;;16.70;;
18689;SDS011;9782;52.930;15.562;2023-01-29T08:47:44;36.27;;;15.13;;
18689;SDS011;9782;52.930;15.562;2023-01-29T08:50:12;40.13;;;14.73;;
18689;SDS011;9782;52.930;15.562;2023-01-29T08:52:39;33.70;;;15.13;;
18689;SDS011;9782;52.930;15.562;2023-01-29T08:55:06;44.63;;;15.90;;
18689;SDS011;9782;52.930;15.562;2023-01-29T08:57:33;36.23;;;15.67;;
18689;SDS011;9782;52.930;15.562;2023-01-29T09:00:01;41.53;;;15.43;;
18689;SDS011;9782;52.930;15.562;2023-01-29T09:02:30;41.47;;;15.17;;
18689;SDS011;9782;52.930;15.562;2023-01-29T09:04:57;39.67;;;15.10;;
18689;SDS011;9782;52.930;15.562;2023-01-29T09:07:24;40.40;;;15.50;;
18689;SDS011;9782;52.930;15.562;2023-01-29T09:09:51;34.90;;;14.00;;
18689;SDS011;9782;52.930;15.562;2023-01-29T09:12:19;31.90;;;14.93;;
18689;SDS011;9782;52.930;15.562;2023-01-29T09:14:46;33.20;;;14.13;;
18689;SDS011;9782;52.930;15.562;2023-01-29T09:17:13;44.03;;;17.70;;
18689;SDS011;9782;52.930;15.562;2023-01-29T09:19:42;42.43;;;17.70;;
18689;SDS011;9782;52.930;15.562;2023-01-29T09:22:09;55.97;;;24.63;;
18689;SDS011;9782;52.930;15.562;2023-01-29T09:24:36;44.40;;;19.03;;
18689;SDS011;9782;52.930;15.562;2023-01-29T09:27:03;45.03;;;20.47;;
18689;SDS011;9782;52.930;15.562;2023-01-29T09:29:30;44.37;;;18.33;;
18689;SDS011;9782;52.930;15.562;2023-01-29T09:31:57;46.73;;;20.97;;
18689;SDS011;9782;52.930;15.562;2023-01-29T09:34:24;58.70;;;27.00;;
18689;SDS011;9782;52.930;15.562;2023-01-29T09:36:52;37.37;;;18.87;;
18689;SDS011;9782;52.930;15.562;2023-01-29T09:39:19;35.90;;;16.60;;
18689;SDS011;9782;52.930;15.562;2023-01-29T09:41:49;41.73;;;19.50;;
18689;SDS011;9782;52.930;15.562;2023-01-29T09:44:23;35.43;;;16.83;;
18689;SDS011;9782;52.930;15.562;2023-01-29T09:47:03;33.37;;;15.40;;
18689;SDS011;9782;52.930;15.562;2023-01-29T09:49:37;32.43;;;16.30;;
18689;SDS011;9782;52.930;15.562;2023-01-29T09:52:09;30.83;;;15.57;;
18689;SDS011;9782;52.930;15.562;2023-01-29T09:54:44;33.37;;;17.03;;
18689;SDS011;9782;52.930;15.562;2023-01-29T09:57:17;33.70;;;16.43;;
18689;SDS011;9782;52.930;15.562;2023-01-29T09:59:49;33.43;;;16.23;;
18689;SDS011;9782;52.930;15.562;2023-01-29T10:02:19;32.73;;;16.53;;
18689;SDS011;9782;52.930;15.562;2023-01-29T10:05:11;32.27;;;16.10;;
18689;SDS011;9782;52.930;15.562;2023-01-29T10:08:01;30.40;;;16.13;;
18689;SDS011;9782;52.930;15.562;2023-01-29T10:10:47;38.60;;;17.97;;
18689;SDS011;9782;52.930;15.562;2023-01-29T10:13:19;37.30;;;18.57;;
18689;SDS011;9782;52.930;15.562;2023-01-29T10:16:02;38.23;;;20.37;;
18689;SDS011;9782;52.930;15.562;2023-01-29T10:21:47;32.97;;;17.00;;
18689;SDS011;9782;52.930;15.562;2023-01-29T10:24:28;31.80;;;16.47;;
18689;SDS011;9782;52.930;15.562;2023-01-29T10:27:03;32.97;;;16.77;;
18689;SDS011;9782;52.930;15.562;2023-01-29T10:29:38;35.83;;;16.30;;
18689;SDS011;9782;52.930;15.562;2023-01-29T10:32:07;34.07;;;17.30;;
18689;SDS011;9782;52.930;15.562;2023-01-29T10:34:41;33.23;;;17.47;;
18689;SDS011;9782;52.930;15.562;2023-01-29T10:37:13;43.57;;;21.30;;
18689;SDS011;9782;52.930;15.562;2023-01-29T10:39:44;43.97;;;23.40;;
18689;SDS011;9782;52.930;15.562;2023-01-29T10:42:13;31.67;;;17.60;;
18689;SDS011;9782;52.930;15.562;2023-01-29T10:44:52;35.83;;;19.23;;
18689;SDS011;9782;52.930;15.562;2023-01-29T10:47:35;36.03;;;18.90;;
18689;SDS011;9782;52.930;15.562;2023-01-29T10:50:33;34.73;;;18.70;;
18689;SDS011;9782;52.930;15.562;2023-01-29T10:53:23;33.23;;;17.17;;
18689;SDS011;9782;52.930;15.562;2023-01-29T10:56:04;32.70;;;16.83;;
18689;SDS011;9782;52.930;15.562;2023-01-29T10:58:53;28.73;;;15.70;;
18689;SDS011;9782;52.930;15.562;2023-01-29T11:01:24;31.57;;;15.50;;
18689;SDS011;9782;52.930;15.562;2023-01-29T11:03:56;32.07;;;18.27;;
18689;SDS011;9782;52.930;15.562;2023-01-29T11:06:27;30.23;;;16.13;;
18689;SDS011;9782;52.930;15.562;2023-01-29T11:08:58;28.33;;;15.23;;
18689;SDS011;9782;52.930;15.562;2023-01-29T11:11:38;28.70;;;16.63;;
18689;SDS011;9782;52.930;15.562;2023-01-29T11:14:09;29.23;;;15.93;;
18689;SDS011;9782;52.930;15.562;2023-01-29T11:16:39;34.40;;;17.40;;
18689;SDS011;9782;52.930;15.562;2023-01-29T11:19:07;31.87;;;18.37;;
18689;SDS011;9782;52.930;15.562;2023-01-29T11:21:49;31.10;;;16.53;;
18689;SDS011;9782;52.930;15.562;2023-01-29T11:24:18;35.30;;;15.93;;
18689;SDS011;9782;52.930;15.562;2023-01-29T11:26:47;31.03;;;15.53;;
18689;SDS011;9782;52.930;15.562;2023-01-29T11:29:32;35.13;;;17.00;;
18689;SDS011;9782;52.930;15.562;2023-01-29T11:32:04;30.97;;;16.20;;
18689;SDS011;9782;52.930;15.562;2023-01-29T11:34:33;35.63;;;17.20;;
18689;SDS011;9782;52.930;15.562;2023-01-29T11:37:20;32.20;;;16.70;;
18689;SDS011;9782;52.930;15.562;2023-01-29T11:39:47;32.47;;;15.97;;
18689;SDS011;9782;52.930;15.562;2023-01-29T11:42:19;36.43;;;17.37;;
18689;SDS011;9782;52.930;15.562;2023-01-29T11:44:47;37.17;;;16.83;;
18689;SDS011;9782;52.930;15.562;2023-01-29T11:47:17;32.73;;;16.17;;
18689;SDS011;9782;52.930;15.562;2023-01-29T11:49:45;36.27;;;17.50;;
18689;SDS011;9782;52.930;15.562;2023-01-29T11:52:15;38.13;;;17.40;;
18689;SDS011;9782;52.930;15.562;2023-01-29T11:54:44;36.13;;;17.30;;
18689;SDS011;9782;52.930;15.562;2023-01-29T11:57:24;38.30;;;18.17;;
18689;SDS011;9782;52.930;15.562;2023-01-29T11:59:54;35.17;;;16.97;;
18689;SDS011;9782;52.930;15.562;2023-01-29T12:02:26;32.23;;;16.70;;
18689;SDS011;9782;52.930;15.562;2023-01-29T12:04:57;38.60;;;17.83;;
18689;SDS011;9782;52.930;15.562;2023-01-29T12:07:27;36.10;;;17.63;;
18689;SDS011;9782;52.930;15.562;2023-01-29T12:09:56;36.23;;;18.30;;
18689;SDS011;9782;52.930;15.562;2023-01-29T12:12:29;36.03;;;17.57;;
18689;SDS011;9782;52.930;15.562;2023-01-29T12:15:15;38.87;;;18.83;;
18689;SDS011;9782;52.930;15.562;2023-01-29T12:17:47;39.57;;;18.43;;
18689;SDS011;9782;52.930;15.562;2023-01-29T12:20:33;40.73;;;18.30;;
18689;SDS011;9782;52.930;15.562;2023-01-29T12:23:09;38.43;;;17.67;;
18689;SDS011;9782;52.930;15.562;2023-01-29T12:25:43;37.93;;;19.23;;
18689;SDS011;9782;52.930;15.562;2023-01-29T12:28:29;34.73;;;18.43;;
18689;SDS011;9782;52.930;15.562;2023-01-29T12:33:52;34.77;;;17.60;;
18689;SDS011;9782;52.930;15.562;2023-01-29T12:36:25;35.03;;;17.60;;
18689;SDS011;9782;52.930;15.562;2023-01-29T12:38:57;32.87;;;16.83;;
18689;SDS011;9782;52.930;15.562;2023-01-29T12:41:27;33.57;;;17.20;;
18689;SDS011;9782;52.930;15.562;2023-01-29T12:44:01;33.63;;;17.90;;
18689;SDS011;9782;52.930;15.562;2023-01-29T12:46:33;32.87;;;16.43;;
18689;SDS011;9782;52.930;15.562;2023-01-29T12:49:08;31.23;;;15.67;;
18689;SDS011;9782;52.930;15.562;2023-01-29T12:51:42;30.67;;;15.20;;
18689;SDS011;9782;52.930;15.562;2023-01-29T12:54:15;29.43;;;16.30;;
18689;SDS011;9782;52.930;15.562;2023-01-29T12:56:46;28.97;;;14.50;;
18689;SDS011;9782;52.930;15.562;2023-01-29T12:59:19;26.33;;;13.90;;
18689;SDS011;9782;52.930;15.562;2023-01-29T13:01:52;31.17;;;16.00;;
18689;SDS011;9782;52.930;15.562;2023-01-29T13:04:27;25.33;;;13.10;;
18689;SDS011;9782;52.930;15.562;2023-01-29T13:07:00;24.60;;;12.57;;
18689;SDS011;9782;52.930;15.562;2023-01-29T13:09:34;28.30;;;14.87;;
18689;SDS011;9782;52.930;15.562;2023-01-29T13:12:06;29.90;;;14.50;;
18689;SDS011;9782;52.930;15.562;2023-01-29T13:14:41;37.73;;;18.37;;
18689;SDS011;9782;52.930;15.562;2023-01-29T13:17:12;32.63;;;16.33;;
18689;SDS011;9782;52.930;15.562;2023-01-29T13:19:46;31.40;;;15.83;;
18689;SDS011;9782;52.930;15.562;2023-01-29T13:22:18;34.17;;;15.77;;
18689;SDS011;9782;52.930;15.562;2023-01-29T13:24:48;35.37;;;16.97;;
18689;SDS011;9782;52.930;15.562;2023-01-29T13:27:19;30.60;;;14.53;;
18689;SDS011;9782;52.930;15.562;2023-01-29T13:29:50;33.67;;;16.03;;
18689;SDS011;9782;52.930;15.562;2023-01-29T13:32:21;28.43;;;15.40;;
18689;SDS011;9782;52.930;15.562;2023-01-29T13:34:53;29.70;;;15.10;;
18689;SDS011;9782;52.930;15.562;2023-01-29T13:37:29;29.37;;;15.27;;
18689;SDS011;9782;52.930;15.562;2023-01-29T13:39:58;32.23;;;16.40;;
18689;SDS011;9782;52.930;15.562;2023-01-29T13:42:33;29.97;;;15.90;;
18689;SDS011;9782;52.930;15.562;2023-01-29T13:45:07;35.73;;;17.00;;
18689;SDS011;9782;52.930;15.562;2023-01-29T13:47:43;33.00;;;15.37;;
18689;SDS011;9782;52.930;15.562;2023-01-29T13:50:12;30.03;;;15.53;;
18689;SDS011;9782;52.930;15.562;2023-01-29T13:52:45;29.93;;;14.83;;
18689;SDS011;9782;52.930;15.562;2023-01-29T13:55:21;32.07;;;15.93;;
18689;SDS011;9782;52.930;15.562;2023-01-29T13:57:55;32.93;;;16.83;;
18689;SDS011;9782;52.930;15.562;2023-01-29T14:15:26;25.23;;;14.20;;
18689;SDS011;9782;52.930;15.562;2023-01-29T14:17:58;24.90;;;13.40;;
18689;SDS011;9782;52.930;15.562;2023-01-29T14:20:32;26.90;;;14.40;;
18689;SDS011;9782;52.930;15.562;2023-01-29T14:23:02;28.73;;;15.33;;
18689;SDS011;9782;52.930;15.562;2023-01-29T14:25:31;30.73;;;14.83;;
18689;SDS011;9782;52.930;15.562;2023-01-29T14:28:00;28.60;;;15.30;;
18689;SDS011;9782;52.930;15.562;2023-01-29T14:30:29;28.80;;;15.00;;
18689;SDS011;9782;52.930;15.562;2023-01-29T14:32:59;31.43;;;16.83;;
18689;SDS011;9782;52.930;15.562;2023-01-29T14:35:29;26.87;;;14.50;;
18689;SDS011;9782;52.930;15.562;2023-01-29T14:37:59;34.87;;;17.60;;
18689;SDS011;9782;52.930;15.562;2023-01-29T14:40:30;33.40;;;17.30;;
18689;SDS011;9782;52.930;15.562;2023-01-29T14:43:01;29.10;;;15.80;;
18689;SDS011;9782;52.930;15.562;2023-01-29T14:45:31;34.50;;;18.97;;
18689;SDS011;9782;52.930;15.562;2023-01-29T14:48:02;29.93;;;15.37;;
18689;SDS011;9782;52.930;15.562;2023-01-29T14:50:48;31.83;;;16.07;;
18689;SDS011;9782;52.930;15.562;2023-01-29T14:56:18;30.97;;;16.03;;
18689;SDS011;9782;52.930;15.562;2023-01-29T14:58:51;28.20;;;14.93;;
18689;SDS011;9782;52.930;15.562;2023-01-29T15:01:22;30.17;;;14.77;;
18689;SDS011;9782;52.930;15.562;2023-01-29T15:04:04;31.90;;;16.33;;
18689;SDS011;9782;52.930;15.562;2023-01-29T15:06:40;29.87;;;15.60;;
18689;SDS011;9782;52.930;15.562;2023-01-29T15:09:11;32.10;;;16.10;;
18689;SDS011;9782;52.930;15.562;2023-01-29T15:11:51;32.97;;;15.97;;
18689;SDS011;9782;52.930;15.562;2023-01-29T15:14:25;34.23;;;17.40;;
18689;SDS011;9782;52.930;15.562;2023-01-29T15:17:01;34.30;;;17.53;;
18689;SDS011;9782;52.930;15.562;2023-01-29T15:19:37;36.03;;;17.90;;
18689;SDS011;9782;52.930;15.562;2023-01-29T15:22:09;32.90;;;17.17;;